New Canaan, CT (06840)

10:43 AM EST on December 18, 2014 (GMT -0500)
Silvermine | Change Station
CLOSE
Current Station
Personal Weather Station
Location: Norwalk, CT
Elevation: 260 ft
Nearby Weather Stations

Elev 260 ft 41.13 °N, 73.45 °W | Updated 7 seconds ago

Partly Cloudy
Partly Cloudy
39.9 °F
Feels Like 33 °F
N
12.4
Wind Variable Wind from NW
Gusts 20.6 mph

Today
High -- | Low -- °F
--% Chance of Precip.
Yesterday
High -- | Low -- °F
Precip. -- in
7:14 AM 4:27 PM
Waning Crescent, 14% visible
Pressure 29.96 in
Visibility 10.0 miles
Clouds Scattered Clouds 3700 ft
Windchill 33 °F
Dew Point 24 °F
Humidity 53%
Rainfall 0.00 in
Snow Depth Not available.
UV 0.0 out of 12
Pollen .10 out of 12
Air Quality Not available.
Flu Activity Not available.
METAR KHPN 181456Z 29018G26KT 10SM SCT037 03/M05 A2994 RMK AO2 PK WND 31028/1423 SLP144 T00331050 53009

More Conditions Fewer Conditions

Pressure 29.96 in
Visibility 10.0 miles
Clouds Scattered Clouds 3700 ft
Windchill 33 °F
Dew Point 24 °F
Humidity 53%
Rainfall 0.00 in
Snow Depth Not available.
UV 0.0 out of 12
Pollen .10 out of 12
Air Quality Not available.
Flu Activity Not available.
METAR KHPN 181456Z 29018G26KT 10SM SCT037 03/M05 A2994 RMK AO2 PK WND 31028/1423 SLP144 T00331050 53009

More Conditions Fewer Conditions

10-Day Weather Forecast

Almanac

Astronomy

Dec. 18, 2014 Rise Set
Actual Time
Civil Twilight
Nautical Twilight
Astronomical Twilight
Moon
Length of Visible Light
Length of Day
Tomorrow will be .
, % of the Moon is Illuminated

Today's Extremes

State Highs State Lows

Community

WunderPhotos

Upload Photos

1,778,947 photos uploaded!

WunderBlogs® & News

Nearby

Air Quality

  Air Quality AQ Index Pollutant
Not available.

Snow Depth

Station Depth Elevation

Earthquake Activity

City Distance Mag. Time & Date
Minimum magnitude displayed is 2.5.

Coastal Water Temperatures

Place Temperature

Nearby Weather Stations